createdAt,value
2022-09-01T00:00:15.236Z,21.74
2022-09-01T00:02:43.498Z,21.83
2022-09-01T00:05:12.957Z,21.75
2022-09-01T00:07:40.668Z,21.70
2022-09-01T00:10:09.553Z,21.60
2022-09-01T00:12:37.802Z,21.58
2022-09-01T00:15:08.953Z,21.77
2022-09-01T00:17:36.879Z,21.63
2022-09-01T00:20:06.172Z,21.76
2022-09-01T00:22:33.964Z,21.92
2022-09-01T00:25:02.157Z,21.96
2022-09-01T00:27:30.915Z,21.91
2022-09-01T00:30:00.092Z,21.92
2022-09-01T00:32:28.810Z,21.87
2022-09-01T00:34:56.619Z,21.86
2022-09-01T00:37:24.382Z,21.88
2022-09-01T00:39:52.026Z,21.89
2022-09-01T00:42:20.062Z,21.82
2022-09-01T00:44:47.637Z,21.75
2022-09-01T00:47:17.271Z,21.86
2022-09-01T00:49:50.439Z,21.79
2022-09-01T00:52:35.973Z,21.76
2022-09-01T00:55:12.631Z,21.67
2022-09-01T00:57:41.847Z,21.61
2022-09-01T01:00:23.460Z,21.57
2022-09-01T01:02:56.673Z,21.63
2022-09-01T01:05:34.194Z,21.55
2022-09-01T01:08:04.296Z,21.48
2022-09-01T01:10:37.781Z,21.44
2022-09-01T01:13:13.996Z,21.36
2022-09-01T01:15:44.019Z,21.39
2022-09-01T01:18:22.966Z,21.37
2022-09-01T01:21:23.220Z,21.34
2022-09-01T01:24:42.460Z,21.24
2022-09-01T01:27:10.366Z,21.00
2022-09-01T01:29:39.885Z,21.06
2022-09-01T01:32:13.389Z,20.99
2022-09-01T01:34:43.700Z,21.04
2022-09-01T01:37:14.300Z,21.11
2022-09-01T01:39:44.434Z,20.90
2022-09-01T01:42:12.563Z,20.95
2022-09-01T01:44:40.833Z,21.11
2022-09-01T01:47:13.495Z,20.95
2022-09-01T01:49:43.775Z,20.93
2022-09-01T01:52:17.418Z,20.89
2022-09-01T01:54:46.694Z,20.91
2022-09-01T01:57:18.042Z,20.88
2022-09-01T01:59:48.514Z,20.96
2022-09-01T02:02:18.880Z,20.99
2022-09-01T02:04:46.408Z,20.91
2022-09-01T02:07:14.970Z,20.71
2022-09-01T02:09:46.427Z,20.66
2022-09-01T02:12:21.265Z,20.65
2022-09-01T02:14:50.204Z,20.62
2022-09-01T02:17:18.051Z,20.63
2022-09-01T02:19:47.405Z,20.68
2022-09-01T02:22:14.914Z,20.72
2022-09-01T02:24:48.162Z,20.71
2022-09-01T02:27:25.932Z,20.98
2022-09-01T02:29:55.435Z,20.96
2022-09-01T02:32:23.502Z,20.67
2022-09-01T02:34:53.801Z,20.98
2022-09-01T02:37:25.534Z,20.51
2022-09-01T02:39:56.896Z,20.41
2022-09-01T02:42:29.305Z,20.12
2022-09-01T02:44:58.791Z,20.01
2022-09-01T02:47:28.148Z,20.00
2022-09-01T02:50:03.650Z,19.96
2022-09-01T02:52:37.613Z,19.70
2022-09-01T02:55:05.789Z,19.94
2022-09-01T02:57:34.589Z,19.83
2022-09-01T03:00:20.844Z,19.57
2022-09-01T03:02:53.377Z,19.60
2022-09-01T03:05:27.143Z,19.72
2022-09-01T03:08:02.740Z,19.74
2022-09-01T03:10:39.626Z,19.84
2022-09-01T03:13:20.726Z,19.79
2022-09-01T03:15:50.289Z,19.76
2022-09-01T03:18:20.935Z,19.47
2022-09-01T03:20:51.004Z,19.29
2022-09-01T03:23:19.622Z,19.25
2022-09-01T03:25:49.536Z,19.38
2022-09-01T03:28:17.955Z,19.41
2022-09-01T03:30:51.047Z,19.50
2022-09-01T03:33:22.035Z,19.68
2022-09-01T03:35:50.602Z,19.82
2022-09-01T03:38:24.640Z,19.66
2022-09-01T03:41:02.162Z,19.59
2022-09-01T03:43:35.617Z,19.43
2022-09-01T03:46:04.443Z,19.53
2022-09-01T03:48:33.454Z,19.61
2022-09-01T03:51:03.199Z,19.44
2022-09-01T03:53:37.748Z,19.52
2022-09-01T03:56:09.009Z,19.42
2022-09-01T03:58:36.785Z,19.37
2022-09-01T04:01:05.008Z,19.34
2022-09-01T04:03:36.181Z,19.27
2022-09-01T04:06:09.669Z,19.25
2022-09-01T04:08:37.846Z,19.41
2022-09-01T04:11:16.504Z,19.40
2022-09-01T04:13:47.700Z,19.41
2022-09-01T04:16:53.673Z,19.45
2022-09-01T04:19:26.468Z,19.29
2022-09-01T04:22:01.082Z,19.55
2022-09-01T04:24:34.963Z,19.57
2022-09-01T04:27:04.529Z,19.54
2022-09-01T04:29:33.434Z,19.42
2022-09-01T04:32:12.702Z,19.44
2022-09-01T04:34:43.114Z,19.42
2022-09-01T04:37:21.334Z,19.66
2022-09-01T04:39:57.679Z,19.54
2022-09-01T04:42:29.960Z,19.82
2022-09-01T04:45:09.988Z,19.79
2022-09-01T04:47:42.578Z,19.95
2022-09-01T04:50:14.902Z,19.97
2022-09-01T04:53:06.181Z,20.00
2022-09-01T04:55:44.429Z,20.09
2022-09-01T04:58:19.545Z,20.26
2022-09-01T05:00:52.137Z,20.51
2022-09-01T05:03:23.567Z,20.50
2022-09-01T05:06:00.264Z,20.70
2022-09-01T05:08:29.027Z,20.49
2022-09-01T05:11:07.646Z,20.71
2022-09-01T05:13:46.373Z,20.76
2022-09-01T05:16:22.755Z,20.97
2022-09-01T05:18:57.102Z,20.95
2022-09-01T05:21:29.872Z,20.87
2022-09-01T05:24:01.724Z,20.86
2022-09-01T05:26:50.931Z,20.85
2022-09-01T05:29:19.125Z,20.94
2022-09-01T05:31:50.408Z,21.05
2022-09-01T05:34:26.781Z,21.11
2022-09-01T05:36:59.282Z,21.27
2022-09-01T05:39:28.686Z,21.26
2022-09-01T05:41:57.321Z,21.32
2022-09-01T05:44:26.038Z,21.49
2022-09-01T05:46:57.010Z,21.61
2022-09-01T05:49:26.200Z,21.77
2022-09-01T05:51:55.942Z,21.99
2022-09-01T05:54:27.551Z,22.16
2022-09-01T05:57:12.855Z,22.17
2022-09-01T05:59:53.934Z,22.60
2022-09-01T06:02:26.944Z,22.69
2022-09-01T06:04:57.019Z,22.61
2022-09-01T06:07:28.863Z,22.62
2022-09-01T06:09:59.886Z,22.76
2022-09-01T06:12:29.077Z,23.10
2022-09-01T06:14:58.359Z,23.03
2022-09-01T06:17:28.996Z,23.02
2022-09-01T06:20:00.941Z,23.19
2022-09-01T06:22:29.754Z,23.37
2022-09-01T06:25:02.756Z,23.38
2022-09-01T06:27:42.629Z,23.41
2022-09-01T06:30:23.511Z,23.60
2022-09-01T06:33:10.983Z,23.74
2022-09-01T06:35:43.923Z,23.92
2022-09-01T06:38:13.837Z,24.34
2022-09-01T06:40:45.479Z,24.30
2022-09-01T06:43:17.262Z,24.58
2022-09-01T06:45:54.361Z,24.72
2022-09-01T06:48:24.180Z,24.68
2022-09-01T06:51:17.291Z,24.54
2022-09-01T06:53:51.390Z,24.56
2022-09-01T06:56:19.418Z,24.63
2022-09-01T06:58:48.830Z,24.80
2022-09-01T07:01:19.771Z,25.90
2022-09-01T07:03:53.056Z,25.66
2022-09-01T07:09:20.084Z,25.43
2022-09-01T07:12:25.691Z,26.10
2022-09-01T07:18:03.953Z,25.67
2022-09-01T07:21:38.880Z,25.74
2022-09-01T07:24:05.864Z,25.77
2022-09-01T07:26:35.381Z,25.91
2022-09-01T07:29:07.073Z,26.11
2022-09-01T07:34:46.251Z,26.85
2022-09-01T07:38:03.369Z,26.71
2022-09-01T07:43:32.607Z,27.07
2022-09-01T07:46:37.050Z,26.95
2022-09-01T07:51:55.266Z,27.14
2022-09-01T07:54:24.831Z,27.64
2022-09-01T07:56:54.794Z,27.58
2022-09-01T07:59:23.449Z,27.52
2022-09-01T08:01:57.393Z,27.75
2022-09-01T08:04:25.899Z,27.98
2022-09-01T08:06:53.644Z,28.26
2022-09-01T08:09:37.162Z,28.44
2022-09-01T08:12:08.414Z,28.80
2022-09-01T08:14:43.826Z,28.55
2022-09-01T08:17:17.495Z,28.79
2022-09-01T08:20:09.555Z,29.04
2022-09-01T08:22:52.335Z,29.57
2022-09-01T08:25:26.546Z,29.21
2022-09-01T08:28:02.708Z,28.95
2022-09-01T08:30:32.717Z,29.25
2022-09-01T08:33:11.417Z,29.30
2022-09-01T08:35:46.797Z,29.85
2022-09-01T08:38:16.047Z,29.54
2022-09-01T08:40:57.118Z,29.74
2022-09-01T08:44:10.413Z,30.15
2022-09-01T08:46:43.580Z,29.73
2022-09-01T08:49:28.276Z,30.02
2022-09-01T08:52:39.273Z,29.63
2022-09-01T08:55:32.410Z,29.46
2022-09-01T08:58:02.227Z,29.67
2022-09-01T09:01:01.181Z,30.77
2022-09-01T09:04:02.947Z,30.17
2022-09-01T09:07:05.708Z,30.07
2022-09-01T09:09:54.163Z,30.33
2022-09-01T09:12:49.357Z,30.53
2022-09-01T09:16:08.478Z,30.41
2022-09-01T09:18:56.890Z,30.67
2022-09-01T09:21:42.363Z,30.87
2022-09-01T09:24:29.210Z,30.69
2022-09-01T09:27:09.703Z,31.21
2022-09-01T09:29:38.981Z,31.42
2022-09-01T09:34:59.513Z,31.37
2022-09-01T09:37:31.805Z,31.80
2022-09-01T09:40:15.377Z,31.96
2022-09-01T09:43:06.521Z,31.62
2022-09-01T09:45:42.192Z,31.94
2022-09-01T09:48:34.269Z,31.87
2022-09-01T09:51:23.345Z,32.11
2022-09-01T09:53:50.988Z,32.32
2022-09-01T09:56:24.347Z,31.98
2022-09-01T09:58:54.272Z,32.05
2022-09-01T10:01:26.091Z,32.29
2022-09-01T10:04:00.313Z,32.16
2022-09-01T10:06:37.896Z,32.54
2022-09-01T10:09:17.670Z,32.61
2022-09-01T10:11:57.453Z,32.47
2022-09-01T10:15:04.661Z,32.65
2022-09-01T10:17:44.159Z,32.75
2022-09-01T10:20:14.636Z,32.95
2022-09-01T10:22:42.517Z,33.01
2022-09-01T10:25:21.249Z,33.14
2022-09-01T10:27:58.427Z,33.30
2022-09-01T10:30:27.685Z,33.56
2022-09-01T10:33:06.846Z,33.26
2022-09-01T10:35:45.566Z,33.65
2022-09-01T10:38:20.786Z,33.48
2022-09-01T10:41:14.135Z,33.46
2022-09-01T10:43:49.006Z,33.40
2022-09-01T10:46:26.612Z,33.41
2022-09-01T10:49:02.898Z,33.46
2022-09-01T10:51:36.173Z,33.46
2022-09-01T10:54:06.851Z,33.39
2022-09-01T10:56:54.025Z,33.43
2022-09-01T10:59:33.727Z,33.55
2022-09-01T11:02:26.710Z,33.65
2022-09-01T11:04:55.897Z,33.67
2022-09-01T11:07:44.468Z,33.63
2022-09-01T11:10:36.446Z,33.78
2022-09-01T11:13:37.130Z,33.89
2022-09-01T11:16:46.993Z,34.05
2022-09-01T11:19:18.191Z,34.27
2022-09-01T11:21:46.098Z,34.59
2022-09-01T11:24:50.831Z,34.54
2022-09-01T11:27:50.514Z,34.67
2022-09-01T11:30:50.723Z,34.70
2022-09-01T11:33:36.870Z,35.03
2022-09-01T11:36:31.901Z,34.57
2022-09-01T11:39:05.723Z,34.64
2022-09-01T11:42:07.183Z,34.80
2022-09-01T11:44:59.061Z,35.28
2022-09-01T11:47:33.169Z,35.34
2022-09-01T11:50:07.665Z,35.64
2022-09-01T11:52:38.385Z,35.80
2022-09-01T11:55:08.637Z,35.31
2022-09-01T11:57:41.665Z,35.40
2022-09-01T12:00:18.135Z,35.34
2022-09-01T12:02:54.454Z,35.34
2022-09-01T12:05:36.824Z,35.25
2022-09-01T12:08:18.467Z,35.43
2022-09-01T12:10:56.127Z,35.62
2022-09-01T12:13:25.485Z,35.78
2022-09-01T12:16:17.028Z,35.47
2022-09-01T12:18:52.028Z,35.60
2022-09-01T12:21:38.304Z,35.54
2022-09-01T12:24:11.660Z,35.54
2022-09-01T12:26:40.228Z,35.92
2022-09-01T12:29:08.117Z,36.26
2022-09-01T12:31:36.487Z,36.67
2022-09-01T12:34:04.811Z,36.76
2022-09-01T12:36:38.764Z,36.93
2022-09-01T12:39:18.423Z,36.49
2022-09-01T12:42:06.984Z,36.52
2022-09-01T12:44:46.914Z,36.79
2022-09-01T12:47:34.406Z,36.63
2022-09-01T12:50:13.744Z,36.23
2022-09-01T12:52:54.153Z,36.30
2022-09-01T12:55:52.054Z,36.61
2022-09-01T12:58:26.256Z,36.42
2022-09-01T13:01:17.225Z,36.63
2022-09-01T13:04:15.538Z,36.74
2022-09-01T13:06:43.284Z,37.00
2022-09-01T13:09:10.875Z,37.34
2022-09-01T13:14:49.760Z,38.18
2022-09-01T13:17:17.762Z,38.12
2022-09-01T13:19:45.239Z,38.51
2022-09-01T13:22:12.747Z,38.32
2022-09-01T13:24:40.285Z,38.38
2022-09-01T13:27:23.580Z,38.36
2022-09-01T13:29:52.041Z,38.29
2022-09-01T13:32:22.062Z,38.21
2022-09-01T13:34:52.721Z,38.42
2022-09-01T13:37:22.480Z,38.21
2022-09-01T13:39:50.597Z,38.36
2022-09-01T13:42:18.692Z,38.35
2022-09-01T13:44:49.607Z,38.27
2022-09-01T13:47:34.005Z,38.41
2022-09-01T13:50:11.450Z,38.47
2022-09-01T13:52:43.471Z,38.70
2022-09-01T13:55:17.122Z,39.11
2022-09-01T13:57:44.792Z,39.19
2022-09-01T14:00:18.074Z,39.26
2022-09-01T14:02:50.178Z,39.59
2022-09-01T14:05:27.488Z,39.61
2022-09-01T14:07:56.233Z,39.37
2022-09-01T14:10:27.285Z,39.04
2022-09-01T14:12:55.602Z,39.04
2022-09-01T14:15:27.330Z,38.65
2022-09-01T14:17:58.067Z,38.82
2022-09-01T14:20:36.877Z,38.99
2022-09-01T14:23:06.690Z,38.67
2022-09-01T14:25:34.844Z,38.72
2022-09-01T14:28:03.212Z,38.75
2022-09-01T14:30:33.123Z,38.71
2022-09-01T14:33:02.230Z,38.11
2022-09-01T14:35:33.724Z,38.25
2022-09-01T14:38:05.338Z,38.54
2022-09-01T14:40:32.855Z,38.57
2022-09-01T14:43:00.836Z,38.39
2022-09-01T14:45:31.323Z,38.41
2022-09-01T14:48:01.101Z,38.37
2022-09-01T14:50:35.045Z,37.96
2022-09-01T14:53:05.329Z,36.82
2022-09-01T14:55:33.068Z,35.81
2022-09-01T14:58:00.894Z,35.45
2022-09-01T15:00:30.238Z,35.02
2022-09-01T15:02:58.720Z,34.67
2022-09-01T15:05:26.427Z,34.53
2022-09-01T15:07:54.603Z,34.33
2022-09-01T15:10:26.006Z,34.14
2022-09-01T15:12:59.706Z,33.85
2022-09-01T15:15:29.651Z,33.82
2022-09-01T15:17:59.150Z,33.60
2022-09-01T15:20:45.363Z,33.57
2022-09-01T15:23:22.875Z,33.65
2022-09-01T15:25:54.271Z,33.45
2022-09-01T15:28:22.798Z,33.50
2022-09-01T15:30:51.723Z,33.51
2022-09-01T15:33:22.526Z,33.44
2022-09-01T15:35:50.083Z,33.29
2022-09-01T15:38:18.355Z,33.24
2022-09-01T15:40:57.144Z,33.30
2022-09-01T15:43:27.839Z,33.39
2022-09-01T15:45:58.346Z,33.26
2022-09-01T15:48:30.340Z,33.22
2022-09-01T15:51:30.587Z,33.20
2022-09-01T15:54:08.899Z,33.34
2022-09-01T15:56:37.094Z,33.33
2022-09-01T15:59:07.528Z,33.36
2022-09-01T16:01:41.896Z,33.37
2022-09-01T16:04:19.087Z,33.34
2022-09-01T16:06:49.628Z,33.40
2022-09-01T16:09:20.894Z,33.56
2022-09-01T16:11:48.729Z,33.19
2022-09-01T16:14:16.497Z,33.23
2022-09-01T16:17:13.843Z,32.97
2022-09-01T16:20:14.458Z,32.26
2022-09-01T16:22:54.759Z,31.71
2022-09-01T16:25:32.427Z,31.48
2022-09-01T16:28:23.298Z,31.24
2022-09-01T16:30:54.477Z,31.11
2022-09-01T16:33:22.163Z,30.92
2022-09-01T16:36:08.314Z,30.77
2022-09-01T16:38:39.423Z,30.83
2022-09-01T16:41:44.053Z,30.66
2022-09-01T16:44:45.206Z,30.72
2022-09-01T16:47:35.119Z,30.59
2022-09-01T16:50:29.891Z,30.50
2022-09-01T16:53:18.237Z,30.46
2022-09-01T16:56:13.122Z,30.31
2022-09-01T16:58:52.292Z,30.13
2022-09-01T17:02:23.019Z,29.92
2022-09-01T17:05:19.158Z,29.81
2022-09-01T17:08:26.146Z,29.80
2022-09-01T17:11:10.458Z,29.69
2022-09-01T17:13:43.918Z,29.61
2022-09-01T17:16:42.699Z,29.60
2022-09-01T17:19:18.841Z,29.32
2022-09-01T17:21:54.018Z,29.16
2022-09-01T17:24:43.844Z,28.95
2022-09-01T17:27:40.116Z,28.94
2022-09-01T17:30:08.569Z,28.90
2022-09-01T17:33:18.679Z,28.83
2022-09-01T17:35:46.568Z,28.69
2022-09-01T17:38:32.740Z,28.68
2022-09-01T17:41:23.663Z,28.63
2022-09-01T17:44:14.592Z,28.59
2022-09-01T17:46:58.265Z,28.58
2022-09-01T17:49:50.958Z,28.63
2022-09-01T17:52:55.231Z,28.61
2022-09-01T17:55:43.106Z,28.60
2022-09-01T17:58:23.086Z,28.61
2022-09-01T18:01:15.687Z,28.73
2022-09-01T18:04:36.182Z,28.79
2022-09-01T18:07:20.710Z,28.68
2022-09-01T18:09:55.285Z,28.68
2022-09-01T18:12:31.503Z,28.57
2022-09-01T18:15:20.293Z,28.72
2022-09-01T18:18:15.389Z,28.70
2022-09-01T18:20:46.870Z,28.58
2022-09-01T18:23:39.185Z,28.42
2022-09-01T18:26:22.992Z,28.32
2022-09-01T18:28:55.827Z,28.26
2022-09-01T18:31:35.363Z,28.41
2022-09-01T18:34:29.841Z,28.37
2022-09-01T18:37:37.550Z,28.24
2022-09-01T18:40:15.879Z,28.30
2022-09-01T18:43:17.337Z,28.39
2022-09-01T18:45:56.986Z,28.33
2022-09-01T18:48:52.757Z,28.30
2022-09-01T18:51:33.238Z,28.13
2022-09-01T18:54:31.796Z,28.02
2022-09-01T18:57:19.076Z,28.14
2022-09-01T19:00:18.628Z,27.96
2022-09-01T19:03:28.507Z,27.95
2022-09-01T19:06:27.045Z,27.88
2022-09-01T19:09:01.476Z,28.06
2022-09-01T19:12:16.670Z,27.99
2022-09-01T19:15:13.867Z,27.95
2022-09-01T19:18:23.109Z,27.77
2022-09-01T19:21:32.632Z,27.97
2022-09-01T19:24:15.921Z,27.84
2022-09-01T19:27:04.835Z,27.85
2022-09-01T19:30:02.384Z,27.84
2022-09-01T19:32:40.521Z,27.84
2022-09-01T19:35:18.062Z,27.53
2022-09-01T19:37:51.519Z,27.42
2022-09-01T19:40:33.488Z,27.34
2022-09-01T19:43:10.186Z,27.32
2022-09-01T19:46:06.254Z,27.29
2022-09-01T19:48:58.318Z,27.22
2022-09-01T19:51:42.092Z,27.13
2022-09-01T19:54:27.810Z,27.19
2022-09-01T19:57:21.194Z,27.40
2022-09-01T20:00:10.638Z,27.16
2022-09-01T20:02:53.767Z,27.16
2022-09-01T20:05:58.920Z,26.89
2022-09-01T20:09:04.195Z,27.04
2022-09-01T20:11:52.249Z,26.97
2022-09-01T20:14:52.770Z,26.95
2022-09-01T20:17:58.085Z,26.85
2022-09-01T20:21:07.925Z,26.70
2022-09-01T20:24:06.345Z,26.84
2022-09-01T20:26:48.495Z,26.70
2022-09-01T20:29:33.025Z,26.73
2022-09-01T20:32:07.268Z,26.55
2022-09-01T20:34:54.998Z,26.67
2022-09-01T20:37:34.157Z,26.61
2022-09-01T20:40:25.056Z,26.81
2022-09-01T20:43:19.352Z,26.78
2022-09-01T20:45:47.374Z,26.72
2022-09-01T20:48:27.789Z,26.95
2022-09-01T20:51:41.442Z,26.78
2022-09-01T20:54:30.116Z,26.59
2022-09-01T20:57:00.410Z,26.55
2022-09-01T20:59:56.809Z,26.46
2022-09-01T21:02:46.072Z,26.45
2022-09-01T21:05:46.304Z,26.18
2022-09-01T21:08:39.051Z,26.47
2022-09-01T21:11:55.341Z,26.47
2022-09-01T21:14:51.059Z,26.33
2022-09-01T21:17:58.700Z,26.46
2022-09-01T21:21:21.072Z,26.11
2022-09-01T21:23:48.692Z,26.15
2022-09-01T21:26:16.252Z,26.20
2022-09-01T21:28:48.031Z,26.10
2022-09-01T21:31:15.906Z,26.21
2022-09-01T21:33:44.705Z,25.97
2022-09-01T21:36:12.425Z,26.10
2022-09-01T21:38:40.179Z,26.09
2022-09-01T21:41:12.975Z,26.23
2022-09-01T21:43:44.715Z,26.33
2022-09-01T21:46:14.681Z,26.06
2022-09-01T21:48:42.687Z,26.04
2022-09-01T21:51:10.328Z,25.90
2022-09-01T21:53:37.900Z,25.87
2022-09-01T21:56:06.096Z,25.93
2022-09-01T21:58:36.341Z,25.98
2022-09-01T22:01:05.488Z,25.89
2022-09-01T22:03:33.531Z,26.00
2022-09-01T22:06:01.143Z,25.91
2022-09-01T22:08:28.700Z,25.84
2022-09-01T22:10:56.447Z,25.77
2022-09-01T22:13:25.526Z,25.69
2022-09-01T22:15:54.629Z,25.65
2022-09-01T22:18:23.068Z,25.76
2022-09-01T22:20:50.728Z,25.93
2022-09-01T22:23:20.446Z,25.68
2022-09-01T22:25:48.576Z,25.56
2022-09-01T22:28:16.063Z,25.54
2022-09-01T22:30:51.390Z,25.68
2022-09-01T22:33:21.392Z,26.00
2022-09-01T22:35:53.583Z,25.86
2022-09-01T22:38:22.564Z,25.78
2022-09-01T22:40:55.129Z,26.11
2022-09-01T22:43:28.185Z,25.96
2022-09-01T22:45:58.375Z,26.12
2022-09-01T22:48:27.815Z,26.01
2022-09-01T22:50:55.481Z,25.30
2022-09-01T22:53:24.043Z,25.09
2022-09-01T22:55:52.838Z,24.93
2022-09-01T22:58:21.245Z,24.81
2022-09-01T23:00:54.261Z,24.65
2022-09-01T23:03:23.805Z,24.48
2022-09-01T23:06:07.629Z,24.64
2022-09-01T23:08:36.063Z,24.76
2022-09-01T23:11:03.830Z,24.76
2022-09-01T23:13:31.649Z,24.71
2022-09-01T23:16:04.621Z,24.91
2022-09-01T23:18:35.568Z,24.80
2022-09-01T23:21:05.302Z,24.53
2022-09-01T23:23:33.784Z,24.61
2022-09-01T23:26:04.082Z,24.96
2022-09-01T23:28:32.642Z,24.90
2022-09-01T23:31:00.560Z,25.01
2022-09-01T23:33:30.263Z,25.01
2022-09-01T23:35:57.930Z,24.83
2022-09-01T23:38:26.691Z,24.69
2022-09-01T23:40:57.024Z,24.73
2022-09-01T23:43:26.259Z,24.63
2022-09-01T23:45:57.299Z,24.37
2022-09-01T23:48:25.685Z,24.42
2022-09-01T23:50:57.923Z,24.47
2022-09-01T23:53:33.645Z,24.50
2022-09-01T23:56:04.570Z,24.62
2022-09-01T23:58:32.909Z,24.65
